Time;durP1;ratioP1;P1;durP2;ratioP2;P2;SDS_P1;SDS_P2;PMS_P1;PMS_P2;Temp;Humidity;BMP_temperature;BMP_pressure;BME280_temperature;BME280_humidity;BME280_pressure;Samples;Min_cycle;Max_cycle;Signal;HPM_P1;HPM_P2
2023/09/22 00:02:23;;;;;;;;;;;;;;;;;;6256587;28;19904;-82
2023/09/22 00:05:23;;;;;;;;;;;;;;;;;;6256590;28;19927;-83
2023/09/22 00:08:24;;;;;;;;;;;;;;;;;;6289204;28;19919;-83
2023/09/22 00:11:24;;;;;;;;;;;;;;;;;;6281456;28;19912;-83
2023/09/22 00:14:24;;;;;;;;;;;;;;;;;;6299746;28;19905;-82
2023/09/22 00:17:24;;;;;;;;;;;;;;;;;;6299361;28;19918;-82
2023/09/22 00:20:24;;;;;;;;;;;;;;;;;;6299309;28;19916;-82
2023/09/22 00:23:25;;;;;;;;;;;;;;;;;;6299266;28;19997;-83
2023/09/22 00:26:25;;;;;;;;;;;;;;;;;;6298938;28;20038;-83
2023/09/22 00:29:25;;;;;;;;;;;;;;;;;;6299397;28;19909;-82
2023/09/22 00:32:25;;;;;;;;;;;;;;;;;;6298583;28;20112;-82
2023/09/22 00:35:25;;;;;;;;;;;;;;;;;;6298483;28;19985;-83
2023/09/22 00:38:26;;;;;;;;;;;;;;;;;;6280767;28;20294;-83
2023/09/22 00:41:26;;;;;;;;;;;;;;;;;;6298651;28;19908;-83
2023/09/22 00:44:26;;;;;;;;;;;;;;;;;;6280986;28;20377;-83
2023/09/22 00:47:26;;;;;;;;;;;;;;;;;;6298724;28;20251;-82
2023/09/22 00:50:26;;;;;;;;;;;;;;;;;;6280490;28;19954;-83
2023/09/22 00:53:26;;;;;;;;;;;;;;;;;;6298199;28;19959;-82
2023/09/22 00:56:26;;;;;;;;;;;;;;;;;;6280677;28;20306;-83
2023/09/22 00:59:27;;;;;;;;;;;;;;;;;;6298416;28;19911;-83
2023/09/22 01:02:29;;;;;;;;;;;;;;;;;;6280202;28;19997;-83
2023/09/22 01:05:29;;;;;;;;;;;;;;;;;;6297985;28;19908;-83
2023/09/22 01:08:29;;;;;;;;;;;;;;;;;;6297869;28;19916;-83
2023/09/22 01:11:31;;;;;;;;;;;;;;;;;;6279997;28;19908;-84
2023/09/22 01:14:32;;;;;;;;;;;;;;;;;;6298323;28;19911;-83
2023/09/22 01:17:32;;;;;;;;;;;;;;;;;;6297872;28;19904;-83
2023/09/22 01:20:32;;;;;;;;;;;;;;;;;;6297909;28;19912;-83
2023/09/22 01:23:34;;;;;;;;;;;;;;;;;;6279985;28;20415;-83
2023/09/22 01:26:36;;;;;;;;;;;;;;;;;;6297687;28;20367;-83
2023/09/22 01:29:36;;;;;;;;;;;;;;;;;;6298113;28;19911;-83
2023/09/22 01:32:37;;;;;;;;;;;;;;;;;;6297902;28;19948;-83
2023/09/22 01:35:37;;;;;;;;;;;;;;;;;;6297571;28;19911;-83
2023/09/22 01:38:37;;;;;;;;;;;;;;;;;;6297656;28;19904;-83
2023/09/22 01:41:37;;;;;;;;;;;;;;;;;;6279721;28;20397;-83
2023/09/22 01:44:38;;;;;;;;;;;;;;;;;;6279558;28;19911;-83
2023/09/22 01:47:40;;;;;;;;;;;;;;;;;;6298262;28;19991;-83
2023/09/22 01:50:40;;;;;;;;;;;;;;;;;;6298004;28;19905;-82
2023/09/22 01:53:40;;;;;;;;;;;;;;;;;;6279429;28;19909;-84
2023/09/22 01:56:40;;;;;;;;;;;;;;;;;;6297837;28;20011;-84
2023/09/22 01:59:40;;;;;;;;;;;;;;;;;;6297607;28;20331;-83
2023/09/22 02:02:42;;;;;;;;;;;;;;;;;;6297827;28;19987;-82
2023/09/22 02:05:43;;;;;;;;;;;;;;;;;;6297319;28;19911;-82
2023/09/22 02:08:43;;;;;;;;;;;;;;;;;;6297196;28;19916;-83
2023/09/22 02:11:44;;;;;;;;;;;;;;;;;;6300337;28;19908;-83
2023/09/22 02:14:44;;;;;;;;;;;;;;;;;;6284205;28;19905;-82
2023/09/22 02:17:44;;;;;;;;;;;;;;;;;;6301945;28;19987;-83
2023/09/22 02:20:44;;;;;;;;;;;;;;;;;;6301929;28;20037;-82
2023/09/22 02:23:44;;;;;;;;;;;;;;;;;;6283692;28;20286;-82
2023/09/22 02:26:44;;;;;;;;;;;;;;;;;;6301594;28;19911;-82
2023/09/22 02:29:46;;;;;;;;;;;;;;;;;;6283612;28;19954;-82
2023/09/22 02:32:50;;;;;;;;;;;;;;;;;;6283532;28;19984;-83
2023/09/22 02:35:50;;;;;;;;;;;;;;;;;;6302115;28;20246;-82
2023/09/22 02:38:50;;;;;;;;;;;;;;;;;;6301677;28;19905;-83
2023/09/22 02:41:50;;;;;;;;;;;;;;;;;;6301960;28;19954;-81
2023/09/22 02:44:50;;;;;;;;;;;;;;;;;;6301261;28;20354;-82
2023/09/22 02:47:53;;;;;;;;;;;;;;;;;;6304878;28;19904;-89
2023/09/22 02:50:53;;;;;;;;;;;;;;;;;;6305793;28;19904;-90
2023/09/22 02:53:54;;;;;;;;;;;;;;;;;;6305487;28;20414;-89
2023/09/22 02:56:54;;;;;;;;;;;;;;;;;;6285490;28;19905;-83
2023/09/22 02:59:54;;;;;;;;;;;;;;;;;;6300960;28;20358;-82
2023/09/22 03:02:54;;;;;;;;;;;;;;;;;;6301444;28;19911;-82
2023/09/22 03:05:55;;;;;;;;;;;;;;;;;;6301754;28;19905;-82
2023/09/22 03:08:55;;;;;;;;;;;;;;;;;;6300586;28;20412;-82
2023/09/22 03:11:55;;;;;;;;;;;;;;;;;;6282893;28;19915;-83
2023/09/22 03:14:55;;;;;;;;;;;;;;;;;;6300745;28;19905;-83
2023/09/22 03:17:56;;;;;;;;;;;;;;;;;;6282642;28;19911;-82
2023/09/22 03:20:56;;;;;;;;;;;;;;;;;;6282954;28;20386;-82
2023/09/22 03:23:56;;;;;;;;;;;;;;;;;;6299245;28;19904;-82
2023/09/22 03:26:57;;;;;;;;;;;;;;;;;;6300614;28;19904;-83
2023/09/22 03:29:57;;;;;;;;;;;;;;;;;;6282498;28;19904;-83
2023/09/22 03:32:58;;;;;;;;;;;;;;;;;;6300584;28;20277;-82
2023/09/22 03:35:59;;;;;;;;;;;;;;;;;;6300367;28;19904;-82
2023/09/22 03:39:00;;;;;;;;;;;;;;;;;;6282437;28;19912;-81
2023/09/22 03:42:00;;;;;;;;;;;;;;;;;;6300029;28;20035;-82
2023/09/22 03:45:00;;;;;;;;;;;;;;;;;;6299774;28;19912;-83
2023/09/22 03:48:00;;;;;;;;;;;;;;;;;;6299716;28;19998;-83
2023/09/22 03:51:00;;;;;;;;;;;;;;;;;;6300400;28;19987;-83
2023/09/22 03:54:00;;;;;;;;;;;;;;;;;;6281667;28;19927;-82
2023/09/22 03:57:00;;;;;;;;;;;;;;;;;;6299784;28;19910;-91
2023/09/22 04:00:00;;;;;;;;;;;;;;;;;;6299663;28;19904;-90
2023/09/22 04:03:01;;;;;;;;;;;;;;;;;;6281997;28;19905;-90
2023/09/22 04:06:01;;;;;;;;;;;;;;;;;;6299527;28;20289;-90
2023/09/22 04:09:07;;;;;;;;;;;;;;;;;;6281510;28;19916;-90
2023/09/22 04:12:07;;;;;;;;;;;;;;;;;;6299750;28;19909;-91
2023/09/22 04:15:08;;;;;;;;;;;;;;;;;;6299640;28;20274;-91
2023/09/22 04:18:09;;;;;;;;;;;;;;;;;;6299844;28;19916;-91
2023/09/22 04:21:09;;;;;;;;;;;;;;;;;;6281605;28;19954;-91
2023/09/22 04:24:11;;;;;;;;;;;;;;;;;;6281331;28;19958;-90
2023/09/22 04:27:11;;;;;;;;;;;;;;;;;;6299045;28;19911;-91
2023/09/22 04:30:15;;;;;;;;;;;;;;;;;;6298901;28;19904;-90
2023/09/22 04:33:17;;;;;;;;;;;;;;;;;;6280282;28;19973;-91
2023/09/22 04:36:18;;;;;;;;;;;;;;;;;;6299202;28;19909;-89
2023/09/22 04:39:21;;;;;;;;;;;;;;;;;;6280924;28;19973;-90
2023/09/22 04:42:22;;;;;;;;;;;;;;;;;;6280774;28;19966;-90
2023/09/22 04:45:23;;;;;;;;;;;;;;;;;;6280918;28;20370;-90
2023/09/22 04:48:26;;;;;;;;;;;;;;;;;;6299398;28;19987;-90
2023/09/22 04:51:27;;;;;;;;;;;;;;;;;;6280679;28;19966;-90
2023/09/22 04:54:27;;;;;;;;;;;;;;;;;;6280132;28;20282;-90
2023/09/22 04:57:29;;;;;;;;;;;;;;;;;;6280498;28;19905;-90
2023/09/22 05:00:33;;;;;;;;;;;;;;;;;;6298727;28;19999;-90
2023/09/22 05:03:34;;;;;;;;;;;;;;;;;;6299214;28;19940;-90
2023/09/22 05:06:34;;;;;;;;;;;;;;;;;;6280991;28;20386;-83
2023/09/22 05:09:34;;;;;;;;;;;;;;;;;;6280199;28;19916;-82
2023/09/22 05:12:34;;;;;;;;;;;;;;;;;;6297994;28;19915;-82
2023/09/22 05:15:34;;;;;;;;;;;;;;;;;;6297937;28;19958;-83
2023/09/22 05:18:34;;;;;;;;;;;;;;;;;;6298823;28;19991;-82
2023/09/22 05:21:36;;;;;;;;;;;;;;;;;;6280885;28;19905;-82
2023/09/22 05:24:36;;;;;;;;;;;;;;;;;;6298181;28;19912;-82
2023/09/22 05:27:36;;;;;;;;;;;;;;;;;;6297734;28;19916;-82
2023/09/22 05:30:40;;;;;;;;;;;;;;;;;;6280159;28;19904;-82
2023/09/22 05:33:40;;;;;;;;;;;;;;;;;;6279702;28;20110;-82
2023/09/22 05:36:42;;;;;;;;;;;;;;;;;;6297752;28;20390;-82
2023/09/22 05:39:42;;;;;;;;;;;;;;;;;;6297625;28;19912;-82
2023/09/22 05:42:42;;;;;;;;;;;;;;;;;;6298020;28;20290;-82
2023/09/22 05:45:42;;;;;;;;;;;;;;;;;;6298672;28;19905;-82
2023/09/22 05:48:43;;;;;;;;;;;;;;;;;;6302779;28;19904;-83
2023/09/22 05:51:43;;;;;;;;;;;;;;;;;;6302590;28;19905;-82
2023/09/22 05:54:43;;;;;;;;;;;;;;;;;;6302636;28;19995;-83
2023/09/22 05:57:43;;;;;;;;;;;;;;;;;;6302467;28;19912;-82
2023/09/22 06:00:44;;;;;;;;;;;;;;;;;;6302274;28;20008;-83
2023/09/22 06:03:44;;;;;;;;;;;;;;;;;;6302118;28;20393;-82
2023/09/22 06:06:45;;;;;;;;;;;;;;;;;;6302373;28;20013;-82
2023/09/22 06:09:45;;;;;;;;;;;;;;;;;;6301931;28;20294;-83
2023/09/22 06:12:46;;;;;;;;;;;;;;;;;;6283772;28;20484;-82
2023/09/22 06:15:46;;;;;;;;;;;;;;;;;;6302841;28;19911;-84
2023/09/22 06:18:46;;;;;;;;;;;;;;;;;;6283992;28;20394;-82
2023/09/22 06:21:46;;;;;;;;;;;;;;;;;;6302368;28;19912;-82
2023/09/22 06:24:47;;;;;;;;;;;;;;;;;;6302532;28;19912;-82
2023/09/22 06:27:48;;;;;;;;;;;;;;;;;;6284028;28;19904;-91
2023/09/22 06:30:49;;;;;;;;;;;;;;;;;;6284390;28;19943;-91
2023/09/22 06:33:50;;;;;;;;;;;;;;;;;;6301078;28;20393;-91
2023/09/22 06:36:50;;;;;;;;;;;;;;;;;;6302263;28;19905;-91
2023/09/22 06:39:50;;;;;;;;;;;;;;;;;;6302737;28;19911;-92
2023/09/22 06:42:50;;;;;;;;;;;;;;;;;;6283945;28;19904;-92
2023/09/22 06:45:51;;;;;;;;;;;;;;;;;;6302210;28;19904;-92
2023/09/22 06:48:51;;;;;;;;;;;;;;;;;;6302039;28;19912;-91
2023/09/22 06:51:51;;;;;;;;;;;;;;;;;;6303878;28;19908;-91
2023/09/22 06:54:52;;;;;;;;;;;;;;;;;;6289084;28;20026;-92
2023/09/22 06:57:52;;;;;;;;;;;;;;;;;;6288520;28;19905;-91
2023/09/22 07:00:52;;;;;;;;;;;;;;;;;;6306535;28;19905;-92
2023/09/22 07:03:54;;;;;;;;;;;;;;;;;;6288649;28;19904;-92
2023/09/22 07:06:54;;;;;;;;;;;;;;;;;;6289148;28;19905;-92
2023/09/22 07:09:54;;;;;;;;;;;;;;;;;;6308465;28;19907;-92
2023/09/22 07:12:55;;;;;;;;;;;;;;;;;;6289697;28;19908;-91
2023/09/22 07:15:55;;;;;;;;;;;;;;;;;;6288124;28;20385;-91
2023/09/22 07:18:56;;;;;;;;;;;;;;;;;;6304087;28;19905;-92
2023/09/22 07:21:56;;;;;;;;;;;;;;;;;;6302854;28;19915;-92
2023/09/22 07:24:56;;;;;;;;;;;;;;;;;;6303059;28;19909;-92
2023/09/22 07:27:56;;;;;;;;;;;;;;;;;;6283270;28;19908;-84
2023/09/22 07:30:56;;;;;;;;;;;;;;;;;;6282147;28;19931;-83
2023/09/22 07:33:57;;;;;;;;;;;;;;;;;;6300863;28;20358;-83
2023/09/22 07:36:57;;;;;;;;;;;;;;;;;;6301804;28;19911;-91
2023/09/22 07:40:00;;;;;;;;;;;;;;;;;;6305369;28;20023;-90
2023/09/22 07:43:00;;;;;;;;;;;;;;;;;;6301967;28;19910;-91
2023/09/22 07:46:04;;;;;;;;;;;;;;;;;;6306752;28;20246;-92
2023/09/22 07:49:04;;;;;;;;;;;;;;;;;;6284641;28;19986;-92
2023/09/22 07:52:10;;;;;;;;;;;;;;;;;;6301231;28;19930;-92
2023/09/22 07:55:14;;;;;;;;;;;;;;;;;;6284902;28;19904;-92
2023/09/22 07:58:14;;;;;;;;;;;;;;;;;;6301440;28;19904;-93
2023/09/22 08:01:16;;;;;;;;;;;;;;;;;;6300833;28;20274;-92
2023/09/22 08:04:18;;;;;;;;;;;;;;;;;;6282542;28;19987;-92
2023/09/22 08:07:18;;;;;;;;;;;;;;;;;;6299958;28;19917;-93
2023/09/22 08:10:18;;;;;;;;;;;;;;;;;;6299535;28;19911;-92
2023/09/22 08:13:21;;;;;;;;;;;;;;;;;;6300131;28;19908;-93
2023/09/22 08:16:21;;;;;;;;;;;;;;;;;;6300419;28;19911;-93
2023/09/22 08:19:22;;;;;;;;;;;;;;;;;;6281699;28;20282;-91
2023/09/22 08:22:22;;;;;;;;;;;;;;;;;;6300293;28;19905;-92
2023/09/22 08:25:22;;;;;;;;;;;;;;;;;;6299874;28;19911;-93
2023/09/22 08:28:23;;;;;;;;;;;;;;;;;;6281861;28;19953;-93
2023/09/22 08:31:23;;;;;;;;;;;;;;;;;;6282079;28;19912;-93
2023/09/22 08:34:23;;;;;;;;;;;;;;;;;;6299772;28;20278;-93
2023/09/22 08:37:23;;;;;;;;;;;;;;;;;;6281011;28;20325;-83
2023/09/22 08:40:23;;;;;;;;;;;;;;;;;;6280906;28;19904;-83
2023/09/22 08:43:24;;;;;;;;;;;;;;;;;;6299561;28;19904;-83
2023/09/22 08:46:24;;;;;;;;;;;;;;;;;;6299232;28;19950;-83
2023/09/22 08:49:24;;;;;;;;;;;;;;;;;;6298765;28;19908;-83
2023/09/22 08:52:25;;;;;;;;;;;;;;;;;;6298412;28;20333;-82
2023/09/22 08:55:26;;;;;;;;;;;;;;;;;;6280411;28;20251;-84
2023/09/22 08:58:26;;;;;;;;;;;;;;;;;;6298623;28;20020;-83
2023/09/22 09:01:27;;;;;;;;;;;;;;;;;;6298342;28;19909;-83
2023/09/22 09:04:28;;;;;;;;;;;;;;;;;;6299033;28;19904;-82
2023/09/22 09:07:28;;;;;;;;;;;;;;;;;;6280271;28;19916;-82
2023/09/22 09:10:29;;;;;;;;;;;;;;;;;;6280221;28;20321;-83
2023/09/22 09:13:29;;;;;;;;;;;;;;;;;;6280340;28;19948;-84
2023/09/22 09:16:31;;;;;;;;;;;;;;;;;;6298558;28;19962;-83
2023/09/22 09:19:31;;;;;;;;;;;;;;;;;;6298283;28;19966;-83
2023/09/22 09:22:31;;;;;;;;;;;;;;;;;;6298004;28;20350;-84
2023/09/22 09:25:31;;;;;;;;;;;;;;;;;;6297641;28;19928;-82
2023/09/22 09:28:31;;;;;;;;;;;;;;;;;;6298068;28;19900;-84
2023/09/22 09:31:31;;;;;;;;;;;;;;;;;;6279990;28;20251;-83
2023/09/22 09:34:31;;;;;;;;;;;;;;;;;;6297513;28;19924;-83
2023/09/22 09:37:32;;;;;;;;;;;;;;;;;;6297682;28;20382;-83
2023/09/22 09:40:42;;;;;;;;;;;;;;;;;;;;;
2023/09/22 09:43:44;;;;;;;;;;;;;;;;;;6293632;28;19970;-84
2023/09/22 09:46:44;;;;;;;;;;;;;;;;;;6297834;28;19911;-84
2023/09/22 09:49:45;;;;;;;;;;;;;;;;;;6297628;28;19904;-83
2023/09/22 09:52:45;;;;;;;;;;;;;;;;;;6297348;28;19912;-82
2023/09/22 09:55:45;;;;;;;;;;;;;;;;;;6297524;28;20317;-84
2023/09/22 09:58:45;;;;;;;;;;;;;;;;;;6298458;28;20405;-93
2023/09/22 10:01:45;;;;;;;;;;;;;;;;;;6298495;28;20255;-92
2023/09/22 10:04:45;;;;;;;;;;;;;;;;;;6280640;28;19911;-93
2023/09/22 10:07:46;;;;;;;;;;;;;;;;;;6279961;28;19986;-93
2023/09/22 10:10:47;;;;;;;;;;;;;;;;;;6299011;28;19934;-92
2023/09/22 10:13:48;;;;;;;;;;;;;;;;;;6286636;28;19908;-92
2023/09/22 10:16:48;;;;;;;;;;;;;;;;;;6310590;28;19916;-91
2023/09/22 10:19:48;;;;;;;;;;;;;;;;;;6311282;28;19909;-91
2023/09/22 10:22:48;;;;;;;;;;;;;;;;;;6312695;28;19908;-92
2023/09/22 10:25:48;;;;;;;;;;;;;;;;;;6288358;28;19905;-92
2023/09/22 10:28:49;;;;;;;;;;;;;;;;;;6291194;28;19987;-92
2023/09/22 10:31:50;;;;;;;;;;;;;;;;;;6313075;28;19904;-92
2023/09/22 10:34:50;;;;;;;;;;;;;;;;;;6316253;28;19911;-91
2023/09/22 10:37:52;;;;;;;;;;;;;;;;;;6316886;28;19904;-92
2023/09/22 10:40:52;;;;;;;;;;;;;;;;;;6292243;28;19905;-93
2023/09/22 10:43:52;;;;;;;;;;;;;;;;;;6289346;28;19912;-91
2023/09/22 10:46:52;;;;;;;;;;;;;;;;;;6316768;28;19904;-89
2023/09/22 10:49:52;;;;;;;;;;;;;;;;;;6321502;28;19927;-92
2023/09/22 10:52:53;;;;;;;;;;;;;;;;;;6301225;28;19975;-92
2023/09/22 10:55:54;;;;;;;;;;;;;;;;;;6292633;28;20377;-91
2023/09/22 10:58:54;;;;;;;;;;;;;;;;;;6290170;28;19912;-94
2023/09/22 11:01:56;;;;;;;;;;;;;;;;;;6289694;28;19904;-93
2023/09/22 11:04:56;;;;;;;;;;;;;;;;;;6310085;28;19995;-91
2023/09/22 11:07:56;;;;;;;;;;;;;;;;;;6301744;28;20379;-92
2023/09/22 11:10:58;;;;;;;;;;;;;;;;;;6301534;28;19927;-93
2023/09/22 11:13:58;;;;;;;;;;;;;;;;;;6302039;28;20003;-93
2023/09/22 11:16:58;;;;;;;;;;;;;;;;;;6301284;28;20362;-94
2023/09/22 11:19:58;;;;;;;;;;;;;;;;;;6283017;28;19911;-94
2023/09/22 11:22:59;;;;;;;;;;;;;;;;;;6283130;28;19904;-92
2023/09/22 11:26:00;;;;;;;;;;;;;;;;;;6300763;28;19904;-93
2023/09/22 11:29:01;;;;;;;;;;;;;;;;;;6301092;28;19936;-94
2023/09/22 11:32:03;;;;;;;;;;;;;;;;;;6283084;28;19915;-93
2023/09/22 11:35:04;;;;;;;;;;;;;;;;;;6300782;28;19904;-94
2023/09/22 11:38:04;;;;;;;;;;;;;;;;;;6301598;28;19911;-94
2023/09/22 11:41:11;;;;;;;;;;;;;;;;;;6282603;28;19904;-94
2023/09/22 11:44:11;;;;;;;;;;;;;;;;;;6281363;28;20006;-94
2023/09/22 11:47:11;;;;;;;;;;;;;;;;;;6300740;28;19908;-93
2023/09/22 11:50:11;;;;;;;;;;;;;;;;;;6282480;28;19904;-94
2023/09/22 11:53:11;;;;;;;;;;;;;;;;;;6283206;28;19978;-94
2023/09/22 11:56:11;;;;;;;;;;;;;;;;;;6282720;28;19905;-95
2023/09/22 11:59:13;;;;;;;;;;;;;;;;;;6300242;28;19995;-92
2023/09/22 12:02:13;;;;;;;;;;;;;;;;;;6283458;28;19904;-94
2023/09/22 12:05:13;;;;;;;;;;;;;;;;;;6300226;28;19928;-94
2023/09/22 12:08:13;;;;;;;;;;;;;;;;;;6281717;28;19912;-84
2023/09/22 12:11:14;;;;;;;;;;;;;;;;;;6281479;28;19927;-83
2023/09/22 12:14:14;;;;;;;;;;;;;;;;;;6299475;28;20255;-83
2023/09/22 12:17:14;;;;;;;;;;;;;;;;;;6281808;28;20358;-84
2023/09/22 12:20:14;;;;;;;;;;;;;;;;;;6299877;28;20412;-84
2023/09/22 12:23:14;;;;;;;;;;;;;;;;;;6299789;28;19943;-84
2023/09/22 12:26:14;;;;;;;;;;;;;;;;;;6299684;28;19943;-83
2023/09/22 12:29:16;;;;;;;;;;;;;;;;;;6280957;28;19947;-83
2023/09/22 12:32:17;;;;;;;;;;;;;;;;;;6279850;28;20011;-84
2023/09/22 12:35:17;;;;;;;;;;;;;;;;;;6299461;28;19916;-83
2023/09/22 12:38:17;;;;;;;;;;;;;;;;;;6281244;28;19956;-83
2023/09/22 12:41:17;;;;;;;;;;;;;;;;;;6299102;28;19908;-84
2023/09/22 12:44:17;;;;;;;;;;;;;;;;;;6298464;28;20269;-84
2023/09/22 12:47:17;;;;;;;;;;;;;;;;;;6298967;28;20354;-84
2023/09/22 12:50:18;;;;;;;;;;;;;;;;;;6298542;28;20382;-83
2023/09/22 12:53:18;;;;;;;;;;;;;;;;;;6298635;28;20358;-83
2023/09/22 12:56:18;;;;;;;;;;;;;;;;;;6298054;28;20257;-82
2023/09/22 12:59:18;;;;;;;;;;;;;;;;;;6280181;28;19904;-84
2023/09/22 13:02:18;;;;;;;;;;;;;;;;;;6298825;28;19950;-83
2023/09/22 13:05:18;;;;;;;;;;;;;;;;;;6298386;28;19916;-83
2023/09/22 13:08:18;;;;;;;;;;;;;;;;;;6279952;28;20418;-83
2023/09/22 13:11:20;;;;;;;;;;;;;;;;;;6298705;28;20405;-83
2023/09/22 13:14:20;;;;;;;;;;;;;;;;;;6298385;28;19919;-84
2023/09/22 13:17:20;;;;;;;;;;;;;;;;;;6298619;28;19904;-83
2023/09/22 13:20:20;;;;;;;;;;;;;;;;;;6298216;28;19911;-83
2023/09/22 13:23:22;;;;;;;;;;;;;;;;;;6279844;28;20003;-83
2023/09/22 13:26:25;;;;;;;;;;;;;;;;;;6279903;28;19929;-83
2023/09/22 13:29:25;;;;;;;;;;;;;;;;;;6279942;28;20353;-84
2023/09/22 13:32:27;;;;;;;;;;;;;;;;;;6279973;28;20342;-83
2023/09/22 13:35:28;;;;;;;;;;;;;;;;;;6279821;28;20309;-84
2023/09/22 13:38:28;;;;;;;;;;;;;;;;;;6280204;28;19911;-94
2023/09/22 13:41:28;;;;;;;;;;;;;;;;;;6298264;28;20400;-94
2023/09/22 13:44:28;;;;;;;;;;;;;;;;;;6297980;28;19908;-94
2023/09/22 13:47:29;;;;;;;;;;;;;;;;;;6298147;28;19926;-94
2023/09/22 13:50:29;;;;;;;;;;;;;;;;;;6279886;28;20358;-93
2023/09/22 13:53:30;;;;;;;;;;;;;;;;;;6280144;28;19912;-93
2023/09/22 13:56:30;;;;;;;;;;;;;;;;;;6298544;28;20354;-93
2023/09/22 13:59:30;;;;;;;;;;;;;;;;;;6297784;28;19931;-93
2023/09/22 14:02:32;;;;;;;;;;;;;;;;;;6298127;28;20379;-93
2023/09/22 14:05:32;;;;;;;;;;;;;;;;;;6280531;28;19989;-92
2023/09/22 14:08:33;;;;;;;;;;;;;;;;;;6270263;28;19955;-93
2023/09/22 14:11:33;;;;;;;;;;;;;;;;;;6277590;28;19904;-93
2023/09/22 14:14:33;;;;;;;;;;;;;;;;;;6259594;28;20424;-93
2023/09/22 14:17:33;;;;;;;;;;;;;;;;;;6259799;28;19912;-94
2023/09/22 14:20:34;;;;;;;;;;;;;;;;;;6259525;28;19948;-93
2023/09/22 14:23:34;;;;;;;;;;;;;;;;;;6259369;28;19905;-94
2023/09/22 14:26:35;;;;;;;;;;;;;;;;;;6259619;28;20279;-94
2023/09/22 14:29:35;;;;;;;;;;;;;;;;;;6259583;28;19905;-94
2023/09/22 14:32:35;;;;;;;;;;;;;;;;;;6277040;28;19909;-93
2023/09/22 14:35:35;;;;;;;;;;;;;;;;;;6277736;28;19940;-94
2023/09/22 14:38:36;;;;;;;;;;;;;;;;;;6277132;28;19923;-83
2023/09/22 14:41:36;;;;;;;;;;;;;;;;;;6276568;28;19905;-83
2023/09/22 14:44:37;;;;;;;;;;;;;;;;;;6276517;28;20361;-82
2023/09/22 14:47:37;;;;;;;;;;;;;;;;;;6259021;28;20369;-83
2023/09/22 14:50:38;;;;;;;;;;;;;;;;;;6276644;28;19916;-83
2023/09/22 14:53:38;;;;;;;;;;;;;;;;;;6276956;28;20286;-83
2023/09/22 14:56:38;;;;;;;;;;;;;;;;;;6258174;28;19905;-82
2023/09/22 14:59:39;;;;;;;;;;;;;;;;;;6276718;28;19905;-82
2023/09/22 15:02:46;;;;;;;;;;;;;;;;;;6276410;28;20318;-82
2023/09/22 15:05:48;;;;;;;;;;;;;;;;;;6276692;28;19904;-82
2023/09/22 15:08:48;;;;;;;;;;;;;;;;;;6292004;28;20002;-82
2023/09/22 15:11:48;;;;;;;;;;;;;;;;;;6301178;28;19912;-82
2023/09/22 15:14:48;;;;;;;;;;;;;;;;;;6302535;28;19904;-82
2023/09/22 15:17:49;;;;;;;;;;;;;;;;;;6283799;28;19950;-84
2023/09/22 15:20:49;;;;;;;;;;;;;;;;;;6284712;28;20295;-83
2023/09/22 15:23:49;;;;;;;;;;;;;;;;;;6303088;28;19911;-83
2023/09/22 15:26:50;;;;;;;;;;;;;;;;;;6303260;28;20492;-83
2023/09/22 15:29:50;;;;;;;;;;;;;;;;;;6285030;28;19942;-82
2023/09/22 15:32:50;;;;;;;;;;;;;;;;;;6302848;28;19908;-84
2023/09/22 15:35:50;;;;;;;;;;;;;;;;;;6303111;28;19927;-84
2023/09/22 15:38:51;;;;;;;;;;;;;;;;;;6284861;28;20003;-84
2023/09/22 15:41:51;;;;;;;;;;;;;;;;;;6302672;28;19911;-83
2023/09/22 15:44:51;;;;;;;;;;;;;;;;;;6302889;28;19905;-84
2023/09/22 15:47:51;;;;;;;;;;;;;;;;;;6284725;28;19953;-84
2023/09/22 15:50:52;;;;;;;;;;;;;;;;;;6302931;28;19908;-82
2023/09/22 15:53:55;;;;;;;;;;;;;;;;;;6303637;28;19915;-83
2023/09/22 15:56:55;;;;;;;;;;;;;;;;;;6302854;28;20251;-91
2023/09/22 15:59:55;;;;;;;;;;;;;;;;;;6303177;28;20408;-93
2023/09/22 16:02:55;;;;;;;;;;;;;;;;;;6303600;28;19908;-93
2023/09/22 16:05:55;;;;;;;;;;;;;;;;;;6303146;28;19909;-92
2023/09/22 16:08:55;;;;;;;;;;;;;;;;;;6269995;28;19920;-93
2023/09/22 16:11:56;;;;;;;;;;;;;;;;;;6277427;28;19928;-95
2023/09/22 16:14:56;;;;;;;;;;;;;;;;;;6277470;28;19913;-95
2023/09/22 16:17:56;;;;;;;;;;;;;;;;;;6280992;28;19958;-94
2023/09/22 16:20:56;;;;;;;;;;;;;;;;;;6259178;28;19905;-93
2023/09/22 16:23:57;;;;;;;;;;;;;;;;;;6277017;28;19916;-93
2023/09/22 16:26:58;;;;;;;;;;;;;;;;;;6276516;28;19952;-93
2023/09/22 16:29:58;;;;;;;;;;;;;;;;;;6277188;28;19912;-93
2023/09/22 16:32:58;;;;;;;;;;;;;;;;;;6284898;28;20406;-93
2023/09/22 16:35:58;;;;;;;;;;;;;;;;;;6284289;28;20018;-94
2023/09/22 16:38:58;;;;;;;;;;;;;;;;;;6257048;28;20012;-94
2023/09/22 16:41:58;;;;;;;;;;;;;;;;;;6256309;28;19911;-94
2023/09/22 16:44:58;;;;;;;;;;;;;;;;;;6256722;28;19950;-93
2023/09/22 16:47:59;;;;;;;;;;;;;;;;;;6273219;28;19948;-93
2023/09/22 16:50:59;;;;;;;;;;;;;;;;;;6256589;28;20302;-93
2023/09/22 16:54:00;;;;;;;;;;;;;;;;;;6273566;28;19935;-93
2023/09/22 16:57:01;;;;;;;;;;;;;;;;;;6273530;28;20393;-93
2023/09/22 17:00:04;;;;;;;;;;;;;;;;;;6272959;28;19924;-92
2023/09/22 17:03:06;;;;;;;;;;;;;;;;;;6255417;28;19905;-91
2023/09/22 17:06:06;;;;;;;;;;;;;;;;;;6273086;28;19935;-82
2023/09/22 17:09:09;;;;;;;;;;;;;;;;;;6226564;28;1299873;-83
2023/09/22 17:12:10;;;;;;;;;;;;;;;;;;6298084;28;19908;-82
2023/09/22 17:15:10;;;;;;;;;;;;;;;;;;6280138;28;20373;-82
2023/09/22 17:18:12;;;;;;;;;;;;;;;;;;6280542;28;20366;-83
2023/09/22 17:21:13;;;;;;;;;;;;;;;;;;6298356;28;19904;-82
2023/09/22 17:24:13;;;;;;;;;;;;;;;;;;6280127;28;20018;-82
2023/09/22 17:27:13;;;;;;;;;;;;;;;;;;6280075;28;20278;-81
2023/09/22 17:30:13;;;;;;;;;;;;;;;;;;6298241;28;19999;-84
2023/09/22 17:33:15;;;;;;;;;;;;;;;;;;6298101;28;19908;-82
2023/09/22 17:36:15;;;;;;;;;;;;;;;;;;6298024;28;19909;-82
2023/09/22 17:39:17;;;;;;;;;;;;;;;;;;6298396;28;19908;-82
2023/09/22 17:42:18;;;;;;;;;;;;;;;;;;6297569;28;19908;-82
2023/09/22 17:45:18;;;;;;;;;;;;;;;;;;6298162;28;19904;-83
2023/09/22 17:48:18;;;;;;;;;;;;;;;;;;6297584;28;19904;-83
2023/09/22 17:51:18;;;;;;;;;;;;;;;;;;6297602;28;19905;-83
2023/09/22 17:54:18;;;;;;;;;;;;;;;;;;6279374;28;19908;-83
2023/09/22 17:57:18;;;;;;;;;;;;;;;;;;6279463;28;20286;-83
2023/09/22 18:00:22;;;;;;;;;;;;;;;;;;6297426;28;20282;-83
2023/09/22 18:03:22;;;;;;;;;;;;;;;;;;6297351;28;19904;-82
2023/09/22 18:06:22;;;;;;;;;;;;;;;;;;6297102;28;19924;-82
2023/09/22 18:09:24;;;;;;;;;;;;;;;;;;6297195;28;19916;-83
2023/09/22 18:12:26;;;;;;;;;;;;;;;;;;6297123;28;19908;-82
2023/09/22 18:15:26;;;;;;;;;;;;;;;;;;6297751;28;19916;-82
2023/09/22 18:18:26;;;;;;;;;;;;;;;;;;6279429;28;19915;-84
2023/09/22 18:21:26;;;;;;;;;;;;;;;;;;6279332;28;20062;-83
2023/09/22 18:24:27;;;;;;;;;;;;;;;;;;6279046;28;20358;-83
2023/09/22 18:27:29;;;;;;;;;;;;;;;;;;6297445;28;19904;-83
2023/09/22 18:30:29;;;;;;;;;;;;;;;;;;6297730;28;19936;-83
2023/09/22 18:33:29;;;;;;;;;;;;;;;;;;6297080;28;19919;-82
2023/09/22 18:36:30;;;;;;;;;;;;;;;;;;6278791;28;19938;-83
2023/09/22 18:39:30;;;;;;;;;;;;;;;;;;6278938;28;19904;-83
2023/09/22 18:42:30;;;;;;;;;;;;;;;;;;6297779;28;19905;-83
2023/09/22 18:45:30;;;;;;;;;;;;;;;;;;6279217;28;19909;-82
2023/09/22 18:48:30;;;;;;;;;;;;;;;;;;6297491;28;19958;-83
2023/09/22 18:51:31;;;;;;;;;;;;;;;;;;6279177;28;20355;-83
2023/09/22 18:54:31;;;;;;;;;;;;;;;;;;6300239;28;19908;-84
2023/09/22 18:57:31;;;;;;;;;;;;;;;;;;6283661;28;19910;-82
2023/09/22 19:00:31;;;;;;;;;;;;;;;;;;6283150;28;20002;-83
2023/09/22 19:03:33;;;;;;;;;;;;;;;;;;6283008;28;19904;-83
2023/09/22 19:06:33;;;;;;;;;;;;;;;;;;6283075;28;19904;-82
2023/09/22 19:09:33;;;;;;;;;;;;;;;;;;6300696;28;19923;-83
2023/09/22 19:12:34;;;;;;;;;;;;;;;;;;6300740;28;19908;-83
2023/09/22 19:15:34;;;;;;;;;;;;;;;;;;6301556;28;20274;-83
2023/09/22 19:18:35;;;;;;;;;;;;;;;;;;6301284;28;19904;-93
2023/09/22 19:21:35;;;;;;;;;;;;;;;;;;6283862;28;19999;-95
2023/09/22 19:24:35;;;;;;;;;;;;;;;;;;6300957;28;19904;-94
2023/09/22 19:27:37;;;;;;;;;;;;;;;;;;6300820;28;19905;-83
2023/09/22 19:30:38;;;;;;;;;;;;;;;;;;6300647;28;20014;-81
2023/09/22 19:33:39;;;;;;;;;;;;;;;;;;6282522;28;20385;-82
2023/09/22 19:36:39;;;;;;;;;;;;;;;;;;6300640;28;19991;-83
2023/09/22 19:39:41;;;;;;;;;;;;;;;;;;6300316;28;20346;-83
2023/09/22 19:42:41;;;;;;;;;;;;;;;;;;6300062;28;19951;-83
2023/09/22 19:45:41;;;;;;;;;;;;;;;;;;6300697;28;19905;-83
2023/09/22 19:48:41;;;;;;;;;;;;;;;;;;6300073;28;19999;-83
2023/09/22 19:51:42;;;;;;;;;;;;;;;;;;6282217;28;19908;-83
2023/09/22 19:54:42;;;;;;;;;;;;;;;;;;6281873;28;20350;-83
2023/09/22 19:57:43;;;;;;;;;;;;;;;;;;6299762;28;19904;-83
2023/09/22 20:00:45;;;;;;;;;;;;;;;;;;6299628;28;20339;-82
2023/09/22 20:03:49;;;;;;;;;;;;;;;;;;6299007;28;19958;-83
2023/09/22 20:06:49;;;;;;;;;;;;;;;;;;6281316;28;20015;-82
2023/09/22 20:09:49;;;;;;;;;;;;;;;;;;6299304;28;19916;-83
2023/09/22 20:12:50;;;;;;;;;;;;;;;;;;6299250;28;19912;-82
2023/09/22 20:15:51;;;;;;;;;;;;;;;;;;6281420;28;19946;-82
2023/09/22 20:19:00;;;;;;;;;;;;;;;;;;6299116;28;20330;-83
2023/09/22 20:22:01;;;;;;;;;;;;;;;;;;6282027;28;19991;-83
2023/09/22 20:25:02;;;;;;;;;;;;;;;;;;6299170;28;19951;-83
2023/09/22 20:28:02;;;;;;;;;;;;;;;;;;6281412;28;19969;-93
2023/09/22 20:31:02;;;;;;;;;;;;;;;;;;6299709;28;19905;-94
2023/09/22 20:34:03;;;;;;;;;;;;;;;;;;6298478;28;19909;-93